sensor_id;sensor_type;location;lat;lon;timestamp;pressure;altitude;pressure_sealevel;temperature;humidity
43691;BME280;29293;52.190;21.226;2023-05-18T00:06:11;101079.41;;;6.75;100.00
43691;BME280;29293;52.190;21.226;2023-05-18T00:21:21;101076.39;;;6.63;100.00
43691;BME280;29293;52.190;21.226;2023-05-18T00:36:27;101072.88;;;6.49;100.00
43691;BME280;29293;52.190;21.226;2023-05-18T00:51:37;101078.47;;;6.30;100.00
43691;BME280;29293;52.190;21.226;2023-05-18T01:06:44;101100.53;;;6.20;100.00
43691;BME280;29293;52.190;21.226;2023-05-18T01:22:00;101111.33;;;6.05;100.00
43691;BME280;29293;52.190;21.226;2023-05-18T01:37:08;101113.88;;;5.85;100.00
43691;BME280;29293;52.190;21.226;2023-05-18T01:52:20;101125.86;;;5.86;100.00
43691;BME280;29293;52.190;21.226;2023-05-18T02:07:28;101132.65;;;5.82;100.00
43691;BME280;29293;52.190;21.226;2023-05-18T02:22:35;101141.30;;;5.83;100.00
43691;BME280;29293;52.190;21.226;2023-05-18T02:37:42;101152.81;;;5.79;100.00
43691;BME280;29293;52.190;21.226;2023-05-18T02:52:49;101155.20;;;5.68;100.00
43691;BME280;29293;52.190;21.226;2023-05-18T03:07:56;101159.02;;;5.54;100.00
43691;BME280;29293;52.190;21.226;2023-05-18T03:23:06;101172.31;;;5.56;100.00
43691;BME280;29293;52.190;21.226;2023-05-18T03:38:12;101181.13;;;5.60;100.00
43691;BME280;29293;52.190;21.226;2023-05-18T03:53:19;101191.61;;;5.68;100.00
43691;BME280;29293;52.190;21.226;2023-05-18T04:08:26;101207.41;;;5.75;100.00
43691;BME280;29293;52.190;21.226;2023-05-18T04:23:34;101218.07;;;5.96;100.00
43691;BME280;29293;52.190;21.226;2023-05-18T04:38:43;101233.77;;;6.17;100.00
43691;BME280;29293;52.190;21.226;2023-05-18T04:53:50;101241.35;;;6.34;100.00
43691;BME280;29293;52.190;21.226;2023-05-18T05:08:57;101241.23;;;6.55;100.00
43691;BME280;29293;52.190;21.226;2023-05-18T05:24:05;101254.66;;;6.75;100.00
43691;BME280;29293;52.190;21.226;2023-05-18T05:39:12;101263.44;;;6.90;100.00
43691;BME280;29293;52.190;21.226;2023-05-18T05:54:19;101278.79;;;7.06;100.00
43691;BME280;29293;52.190;21.226;2023-05-18T06:09:26;101281.42;;;7.26;100.00
43691;BME280;29293;52.190;21.226;2023-05-18T06:24:33;101291.70;;;7.42;100.00
43691;BME280;29293;52.190;21.226;2023-05-18T06:39:39;101294.35;;;7.53;100.00
43691;BME280;29293;52.190;21.226;2023-05-18T06:54:46;101306.86;;;7.75;100.00
43691;BME280;29293;52.190;21.226;2023-05-18T07:09:53;101311.38;;;8.01;100.00
43691;BME280;29293;52.190;21.226;2023-05-18T07:25:01;101324.86;;;8.19;100.00
43691;BME280;29293;52.190;21.226;2023-05-18T07:40:09;101337.00;;;8.45;100.00
43691;BME280;29293;52.190;21.226;2023-05-18T07:55:17;101337.90;;;8.63;100.00
43691;BME280;29293;52.190;21.226;2023-05-18T08:10:24;101353.67;;;8.94;100.00
43691;BME280;29293;52.190;21.226;2023-05-18T08:25:32;101356.55;;;9.19;100.00
43691;BME280;29293;52.190;21.226;2023-05-18T08:40:44;101366.73;;;9.34;100.00
43691;BME280;29293;52.190;21.226;2023-05-18T08:55:56;101366.05;;;9.56;100.00
43691;BME280;29293;52.190;21.226;2023-05-18T09:11:03;101364.08;;;9.82;100.00
43691;BME280;29293;52.190;21.226;2023-05-18T09:26:11;101367.46;;;10.15;100.00
43691;BME280;29293;52.190;21.226;2023-05-18T09:41:18;101369.00;;;10.47;100.00
43691;BME280;29293;52.190;21.226;2023-05-18T09:56:27;101377.37;;;10.65;100.00
43691;BME280;29293;52.190;21.226;2023-05-18T10:11:35;101375.16;;;10.77;100.00
43691;BME280;29293;52.190;21.226;2023-05-18T10:26:44;101368.71;;;11.19;100.00
43691;BME280;29293;52.190;21.226;2023-05-18T10:41:54;101360.13;;;11.54;100.00
43691;BME280;29293;52.190;21.226;2023-05-18T10:57:03;101361.95;;;11.79;100.00
43691;BME280;29293;52.190;21.226;2023-05-18T11:12:13;101360.42;;;11.97;100.00
43691;BME280;29293;52.190;21.226;2023-05-18T11:27:22;101357.97;;;12.02;100.00
43691;BME280;29293;52.190;21.226;2023-05-18T11:42:33;101350.95;;;12.20;100.00
43691;BME280;29293;52.190;21.226;2023-05-18T11:57:42;101355.63;;;12.52;100.00
43691;BME280;29293;52.190;21.226;2023-05-18T12:12:48;101353.63;;;12.64;100.00
43691;BME280;29293;52.190;21.226;2023-05-18T12:27:57;101360.77;;;12.72;100.00
43691;BME280;29293;52.190;21.226;2023-05-18T12:43:04;101355.33;;;12.80;100.00
43691;BME280;29293;52.190;21.226;2023-05-18T12:58:13;101354.64;;;12.76;100.00
43691;BME280;29293;52.190;21.226;2023-05-18T13:13:20;101358.30;;;12.81;100.00
43691;BME280;29293;52.190;21.226;2023-05-18T13:28:27;101351.70;;;12.85;100.00
43691;BME280;29293;52.190;21.226;2023-05-18T13:43:34;101341.10;;;12.83;100.00
43691;BME280;29293;52.190;21.226;2023-05-18T13:58:41;101346.37;;;12.77;100.00
43691;BME280;29293;52.190;21.226;2023-05-18T14:13:48;101349.13;;;12.77;100.00
43691;BME280;29293;52.190;21.226;2023-05-18T14:28:55;101350.27;;;12.77;100.00
43691;BME280;29293;52.190;21.226;2023-05-18T14:44:01;101345.35;;;12.75;100.00
43691;BME280;29293;52.190;21.226;2023-05-18T14:59:09;101351.33;;;12.67;100.00
43691;BME280;29293;52.190;21.226;2023-05-18T15:14:15;101353.11;;;12.62;100.00
43691;BME280;29293;52.190;21.226;2023-05-18T15:29:23;101353.30;;;12.55;100.00
43691;BME280;29293;52.190;21.226;2023-05-18T15:44:30;101358.33;;;12.53;100.00
43691;BME280;29293;52.190;21.226;2023-05-18T15:59:36;101359.65;;;12.42;100.00
43691;BME280;29293;52.190;21.226;2023-05-18T16:14:43;101359.70;;;12.33;100.00
43691;BME280;29293;52.190;21.226;2023-05-18T16:29:50;101359.05;;;12.27;100.00
43691;BME280;29293;52.190;21.226;2023-05-18T16:44:57;101357.86;;;12.11;100.00
43691;BME280;29293;52.190;21.226;2023-05-18T17:00:04;101363.37;;;11.95;100.00
43691;BME280;29293;52.190;21.226;2023-05-18T17:15:13;101371.73;;;11.83;100.00
43691;BME280;29293;52.190;21.226;2023-05-18T17:30:20;101379.77;;;11.68;100.00
43691;BME280;29293;52.190;21.226;2023-05-18T17:45:27;101391.72;;;11.45;100.00
43691;BME280;29293;52.190;21.226;2023-05-18T18:00:34;101395.84;;;11.21;100.00
43691;BME280;29293;52.190;21.226;2023-05-18T18:15:41;101406.25;;;10.98;100.00
43691;BME280;29293;52.190;21.226;2023-05-18T18:30:48;101408.83;;;10.86;100.00
43691;BME280;29293;52.190;21.226;2023-05-18T18:45:55;101416.68;;;10.70;100.00
43691;BME280;29293;52.190;21.226;2023-05-18T19:01:02;101423.96;;;10.53;100.00
43691;BME280;29293;52.190;21.226;2023-05-18T19:16:09;101428.99;;;10.39;100.00
43691;BME280;29293;52.190;21.226;2023-05-18T19:31:15;101428.42;;;10.16;100.00
43691;BME280;29293;52.190;21.226;2023-05-18T19:46:22;101435.95;;;10.02;100.00
43691;BME280;29293;52.190;21.226;2023-05-18T20:01:29;101437.00;;;9.97;100.00
43691;BME280;29293;52.190;21.226;2023-05-18T21:08:16;101465.88;;;10.56;100.00
43691;BME280;29293;52.190;21.226;2023-05-18T21:23:25;101478.23;;;10.20;100.00
43691;BME280;29293;52.190;21.226;2023-05-18T21:38:32;101485.95;;;10.10;100.00
43691;BME280;29293;52.190;21.226;2023-05-18T22:09:42;101507.33;;;10.05;100.00
43691;BME280;29293;52.190;21.226;2023-05-18T22:24:49;101515.26;;;10.03;100.00
43691;BME280;29293;52.190;21.226;2023-05-18T22:39:56;101514.67;;;9.94;100.00
43691;BME280;29293;52.190;21.226;2023-05-18T22:55:03;101512.20;;;9.85;100.00
43691;BME280;29293;52.190;21.226;2023-05-18T23:10:17;101516.75;;;9.79;100.00
